LIN weather

Milano Linate Airport
Milan, Lombardy, Italy

Public forecast

Using degrees Celsius for public forecast. Weather courtesy of forecast.io.

Current aviation weather report (METAR) for Milano Linate Airport

Report is more than 6 hours old.

Retrieved 2019/10/11 03:20 UTC (8 days ago):

LIML 110320Z 02007KT CAVOK 13/10 Q1022 NOSIG

Aviation forecast (TAF) for Milano Linate Airport

Forecast is more than 12 hours old.

Retrieved 2019/07/26 00:00 UTC (3 months ago):

TAF LIML 262300Z 2700/2724 VRB05KT 9999 SCT050 TEMPO 2709/2724 3000 TSRA SCT010CB BKN040